Latest Weather Observations for Young

IDN60801

Issued at 4:35 pm EDT Friday 28 November 2014 (issued every 30 minutes, with the page automatically refreshed every 10 minutes)

About weather observations | Map of weather stations | Latest weather observations for NSW | Other Formats
Station Details ID: 073138 Name: YOUNG AIRPORT Lat: -34.25 Lon: 148.25 Height: 379.6 m
Data from the previous 72 hours. | See also: Recent months at Young
Date/Time
EDT
Temp
°C
App
Temp
°C
Dew
Point
Rel
Hum
%
Delta-T
°C
Wind Press
QNH
hPa
Press
MSL
hPa
Rain
since 9 am
mm
Dir
 
Spd
km/h
Gust
km/h
Spd
kts
Gust
kts
28/04:30pm 29.4 24.6 2.6 18 13.6 SSW 17 24 9 13 1016.4 1015.4 0.0
28/04:00pm 28.7 24.3 2.8 19 13.1 S 15 30 8 16 1016.8 1015.8 0.0
28/03:30pm 28.9 26.1 3.0 19 13.2 NW 7 15 4 8 1017.1 1016.1 0.0
28/03:00pm 28.5 24.9 2.7 19 13.0 WNW 11 19 6 10 1017.6 1016.6 0.0
28/02:30pm 28.8 25.2 2.9 19 13.1 NNW 11 20 6 11 1018.0 1017.0 0.0
28/02:00pm 28.4 25.6 3.3 20 12.8 NNW 7 19 4 10 1018.5 1017.5 0.0
28/01:30pm 27.5 23.9 3.2 21 12.3 NNE 11 15 6 8 1018.9 1017.9 0.0
28/01:00pm 27.5 24.3 5.1 24 11.7 SSE 11 20 6 11 1019.6 1018.6 0.0
28/12:30pm 26.1 22.1 5.1 26 10.9 E 15 22 8 12 1020.1 1019.2 0.0
28/12:00pm 25.4 21.8 5.1 27 10.4 NE 13 22 7 12 1020.6 1019.6 0.0
28/11:30am 24.6 22.1 6.4 31 9.6 NE 9 17 5 9 1020.9 1019.9 0.0
28/11:00am 23.6 20.1 7.3 35 8.6 E 15 22 8 12 1021.2 1020.2 0.0
28/10:30am 22.6 19.4 8.3 40 7.7 ESE 15 20 8 11 1021.5 1020.5 0.0
28/10:00am 21.8 18.5 8.0 41 7.3 ENE 15 20 8 11 1021.8 1020.8 0.0
28/09:30am 20.3 17.1 8.3 46 6.4 ENE 15 24 8 13 1021.9 1020.9 0.0
28/09:00am 19.5 16.4 8.8 50 5.7 E 15 28 8 15 1022.2 1021.3 0.0
28/08:30am 17.8 14.4 9.2 57 4.6 ESE 17 22 9 12 1022.2 1021.3 0.0
28/08:00am 16.9 13.5 9.3 61 4.0 ESE 17 22 9 12 1022.1 1021.2 0.0
28/07:30am 15.4 12.0 9.3 67 3.2 ESE 17 26 9 14 1021.8 1020.8 0.0
28/07:00am 14.0 10.5 8.8 71 2.7 ESE 17 26 9 14 1021.6 1020.6 0.0
28/06:30am 13.3 10.9 8.8 74 2.3 SE 11 19 6 10 1021.2 1020.2 0.0
28/06:00am 12.8 9.7 8.9 77 2.0 SE 15 20 8 11 1021.1 1020.1 0.0
28/05:30am 13.2 10.1 8.9 75 2.2 ESE 15 22 8 12 1020.8 1019.8 0.0
28/05:00am 13.3 10.6 9.0 75 2.2 ESE 13 20 7 11 1020.5 1019.5 0.0
28/04:30am 13.3 10.2 9.0 75 2.2 SE 15 20 8 11 1020.1 1019.2 0.0
28/04:00am 13.3 11.1 9.2 76 2.1 SE 11 20 6 11 1020.1 1019.2 0.0
28/03:30am 13.7 11.1 9.4 75 2.2 SE 13 19 7 10 1020.0 1019.1 0.0
28/03:00am 13.9 11.3 9.5 75 2.3 ESE 13 17 7 9 1020.3 1019.3 0.0
28/02:30am 14.4 12.3 9.8 74 2.4 SE 11 15 6 8 1020.6 1019.6 0.0
28/02:00am 14.7 12.7 10.1 74 2.4 SE 11 17 6 9 1020.6 1019.6 0.0
28/01:30am 15.0 13.0 10.0 72 2.7 SE 11 15 6 8 1020.6 1019.6 0.0
28/01:00am 16.2 13.2 9.4 64 3.6 ESE 15 20 8 11 1020.8 1019.8 0.0
28/12:30am 16.6 14.8 9.5 63 3.8 SE 9 13 5 7 1020.9 1019.9 0.0
28/12:00am 17.2 14.7 9.6 61 4.0 E 13 17 7 9 1020.8 1019.8 0.0
 
Date/Time
EDT
Temp
°C
App
Temp
°C
Dew
Point
Rel
Hum
%
Delta-T
°C
Wind Press
QNH
hPa
Press
MSL
hPa
Rain
since 9 am
mm
Dir
 
Spd
km/h
Gust
km/h
Spd
kts
Gust
kts
27/11:30pm 17.6 15.1 9.8 60 4.2 E 13 22 7 12 1020.9 1019.9 0.0
27/11:00pm 18.3 15.9 10.2 59 4.4 E 13 20 7 11 1020.7 1019.7 0.0
27/10:30pm 19.1 16.7 10.1 56 4.9 E 13 20 7 11 1020.5 1019.5 0.0
27/10:00pm 20.1 17.0 10.2 53 5.4 E 17 28 9 15 1020.0 1019.1 0.0
27/09:30pm 21.0 17.5 10.2 50 6.0 E 19 33 10 18 1019.4 1018.4 0.0
27/09:00pm 22.4 18.5 9.6 44 7.0 E 20 33 11 18 1018.8 1017.8 0.0
27/08:30pm 22.8 20.2 7.8 38 8.0 E 11 15 6 8 1018.4 1017.4 0.0
27/08:00pm 24.2 20.9 6.5 32 9.3 ESE 13 20 7 11 1018.1 1017.1 0.0
27/07:30pm 25.4 22.0 6.1 29 10.1 ESE 13 20 7 11 1017.9 1016.9 0.0
27/07:00pm 26.5 23.0 5.5 26 11.0 ESE 13 19 7 10 1017.5 1016.4 0.0
27/06:30pm 27.4 23.2 5.6 25 11.5 SSE 17 28 9 15 1017.2 1016.2 0.0
27/06:00pm 27.3 22.5 5.6 25 11.4 SSE 20 28 11 15 1017.1 1016.1 0.0
27/05:30pm 27.9 24.2 6.1 25 11.6 ESE 15 22 8 12 1016.9 1015.9 0.0
27/05:00pm 28.1 23.6 6.2 25 11.7 SSE 19 30 10 16 1017.0 1016.0 0.0
27/04:30pm 27.6 23.4 5.8 25 11.5 SE 17 20 9 11 1017.1 1016.1 0.0
27/04:00pm 27.5 23.3 5.7 25 11.5 SE 17 26 9 14 1017.5 1016.4 0.0
27/03:30pm 28.1 26.0 6.8 26 11.5 WSW 7 13 4 7 1017.6 1016.6 0.0
27/03:00pm 27.0 23.7 6.4 27 11.0 ESE 13 26 7 14 1017.8 1016.8 0.0
27/02:30pm 27.7 24.4 6.5 26 11.4 S 13 20 7 11 1018.0 1017.0 0.0
27/02:00pm 27.7 25.4 7.5 28 11.0 SE 9 20 5 11 1018.4 1017.4 0.0
27/01:30pm 26.8 23.4 7.8 30 10.4 S 15 22 8 12 1018.6 1017.6 0.0
27/01:00pm 25.4 23.7 7.5 32 9.6 WSW 6 13 3 7 1018.9 1017.9 0.0
27/12:30pm 26.2 23.3 8.2 32 9.9 ESE 13 20 7 11 1019.2 1018.2 0.0
27/12:00pm 25.1 21.7 7.7 33 9.4 ESE 15 24 8 13 1019.6 1018.6 0.0
27/11:30am 25.2 22.2 7.8 33 9.4 SE 13 22 7 12 1019.8 1018.9 0.0
27/11:00am 24.2 21.5 9.0 38 8.3 E 13 24 7 13 1019.9 1019.0 0.0
27/10:30am 24.3 21.9 11.3 44 7.4 SE 15 20 8 11 1020.3 1019.3 0.0
27/10:00am 23.0 20.6 11.4 48 6.6 E 15 22 8 12 1020.3 1019.3 0.0
27/09:30am 21.7 19.2 11.1 51 6.0 E 15 24 8 13 1020.5 1019.5 0.0
27/09:00am 20.3 17.6 11.8 58 4.8 ESE 17 28 9 15 1020.7 1019.7 0.0
27/08:30am 19.1 16.0 11.7 62 4.2 ESE 19 30 10 16 1020.6 1019.6 0.0
27/08:00am 18.7 16.2 12.2 66 3.7 ESE 17 32 9 17 1020.5 1019.5 0.0
27/07:30am 17.5 15.3 12.2 71 3.0 ESE 15 24 8 13 1020.3 1019.3 0.0
27/07:00am 16.1 14.4 12.5 79 2.0 SSE 13 17 7 9 1020.0 1019.1 0.0
27/06:30am 14.1 12.6 11.8 86 1.3 S 11 13 6 7 1019.6 1018.6 0.0
27/06:00am 13.1 11.4 11.3 89 1.0 S 11 13 6 7 1019.3 1018.3 0.0
27/05:30am 12.9 11.2 11.1 89 1.0 S 11 15 6 8 1019.1 1018.1 0.0
27/05:00am 12.9 11.1 10.8 87 1.1 S 11 13 6 7 1018.6 1017.6 0.0
27/04:30am 12.8 10.9 10.5 86 1.2 S 11 13 6 7 1018.4 1017.4 0.0
27/04:00am 13.2 11.0 10.7 85 1.3 S 13 15 7 8 1018.1 1017.1 0.0
27/03:30am 13.3 11.5 10.7 84 1.4 S 11 15 6 8 1018.0 1017.0 0.0
27/03:00am 13.0 11.1 10.4 84 1.4 SSW 11 11 6 6 1018.0 1017.0 0.0
27/02:30am 13.4 11.8 10.2 81 1.7 SSW 9 13 5 7 1018.1 1017.1 0.0
27/02:00am 13.1 11.5 10.1 82 1.6 SW 9 11 5 6 1018.2 1017.2 0.0
27/01:30am 10.6 8.7 7.7 82 1.4 SW 7 9 4 5 1018.4 1017.4 0.0
27/01:00am 9.6 7.1 4.8 72 2.2 SW 7 9 4 5 1018.6 1017.6 0.0
27/12:30am 10.0 7.6 4.4 68 2.5 S 6 6 3 3 1018.8 1017.8 0.0
27/12:00am 9.8 7.2 4.0 67 2.6 S 7 9 4 5 1018.9 1017.9 0.0
 
Date/Time
EDT
Temp
°C
App
Temp
°C
Dew
Point
Rel
Hum
%
Delta-T
°C
Wind Press
QNH
hPa
Press
MSL
hPa
Rain
since 9 am
mm
Dir
 
Spd
km/h
Gust
km/h
Spd
kts
Gust
kts
26/11:30pm 10.7 8.1 4.0 63 3.0 S 7 7 4 4 1018.9 1017.9 0.0
26/11:00pm 11.6 8.9 3.9 59 3.5 SSW 7 9 4 5 1018.8 1017.8 0.0
26/10:30pm 12.9 10.3 4.1 55 4.1 S 7 9 4 5 1018.8 1017.8 0.0
26/10:00pm 13.3 11.9 3.7 52 4.4 CALM 0 0 0 0 1018.4 1017.4 0.0
26/09:30pm 14.4 12.9 3.2 47 5.2 CALM 0 0 0 0 1018.2 1017.2 0.0
26/09:00pm 16.2 13.8 2.2 39 6.4 SSW 4 7 2 4 1017.9 1016.9 0.0
26/08:30pm 18.6 15.5 1.6 32 7.8 SW 7 9 4 5 1017.6 1016.6 0.0
26/08:00pm 21.3 17.1 1.6 27 9.2 SW 13 17 7 9 1017.3 1016.3 0.0
26/07:30pm 23.3 19.0 1.0 23 10.5 SW 13 19 7 10 1017.1 1016.1 0.0
26/07:00pm 24.6 19.4 0.2 20 11.4 SSW 17 20 9 11 1016.6 1015.6 0.0
26/06:30pm 25.2 19.7 0.7 20 11.7 SSW 19 26 10 14 1016.3 1015.3 0.0
26/06:00pm 25.8 20.2 1.2 20 11.9 SSW 20 30 11 16 1016.1 1015.1 0.0
26/05:30pm 26.2 20.7 0.8 19 12.2 S 19 30 10 16 1016.0 1015.0 0.0
26/05:00pm 26.3 21.2 0.9 19 12.2 S 17 22 9 12 1016.1 1015.1 0.0
26/04:30pm 26.7 21.3 1.2 19 12.4 SW 19 28 10 15 1016.2 1015.2 0.0
26/04:00pm 26.6 21.0 1.1 19 12.3 SSW 20 35 11 19 1016.5 1015.5 0.0
26/03:30pm 26.2 20.8 1.5 20 12.0 SW 19 32 10 17 1016.6 1015.6 0.0
26/03:19pm 25.8 18.7 1.2 20 11.9 SW 28 35 15 19 1016.8 1015.8 0.0
26/03:00pm 26.4 22.5 0.9 19 12.3 WSW 11 17 6 9 1016.9 1015.9 0.0
26/02:30pm 25.9 19.3 -0.2 18 12.3 SW 24 33 13 18 1017.3 1016.3 0.0
26/02:00pm 25.6 20.5 1.0 20 11.8 SW 17 28 9 15 1017.5 1016.4 0.0
26/01:30pm 25.5 19.9 0.2 19 12.0 SW 19 32 10 17 1017.9 1016.9 0.0
26/01:00pm 24.1 20.0 -0.2 20 11.3 SW 11 22 6 12 1018.1 1017.1 0.0
26/12:30pm 24.0 18.3 -1.0 19 11.4 SW 19 26 10 14 1018.5 1017.5 0.0
26/12:00pm 23.6 19.3 1.3 23 10.6 SSW 13 22 7 12 1018.7 1017.7 0.0
26/11:30am 22.8 18.5 1.2 24 10.2 S 13 20 7 11 1019.1 1018.1 0.0
26/11:00am 22.4 19.5 2.5 27 9.6 ESE 7 20 4 11 1019.3 1018.3 0.0
26/10:30am 21.4 16.8 1.6 27 9.3 SSW 15 22 8 12 1019.5 1018.5 0.0
26/10:00am 21.7 17.3 2.9 29 9.1 S 15 22 8 12 1019.6 1018.6 0.0
26/09:30am 20.3 15.4 2.2 30 8.5 S 17 22 9 12 1019.7 1018.7 0.0
26/09:00am 19.5 16.4 3.6 35 7.6 SE 9 17 5 9 1019.9 1019.0 0.0
26/08:30am 17.9 15.9 6.4 47 5.8 SSE 6 9 3 5 1019.8 1018.9 0.0
26/08:00am 14.2 12.7 6.8 61 3.7 S 4 7 2 4 1019.8 1018.9 0.0
26/07:30am 10.1 8.1 6.1 76 1.9 S 6 7 3 4 1019.7 1018.7 0.0
26/07:00am 7.5 5.0 4.6 82 1.3 S 7 9 4 5 1019.7 1018.7 0.0
26/06:30am 4.9 2.1 2.9 87 0.8 S 7 9 4 5 1019.5 1018.5 0.0
26/06:00am 3.0 -0.1 1.5 90 0.6 S 7 9 4 5 1019.3 1018.3 0.0
26/05:30am 3.0 0.0 2.0 93 0.4 SW 7 7 4 4 1019.1 1018.1 0.0
26/05:00am 3.4 0.4 1.9 90 0.6 S 7 9 4 5 1018.9 1017.9 0.0
26/04:30am 3.4 0.4 1.9 90 0.6 S 7 7 4 4 1018.6 1017.6 0.0
26/04:00am 3.4 0.6 1.8 89 0.6 S 6 7 3 4 1018.7 1017.7 0.0
26/03:30am 4.2 1.4 2.9 91 0.5 SSW 7 7 4 4 1018.6 1017.6 0.0
26/03:00am 4.2 1.5 2.4 88 0.7 S 6 7 3 4 1018.6 1017.6 0.0
26/02:30am 4.5 1.5 2.2 85 0.9 S 7 9 4 5 1018.8 1017.8 0.0
26/02:00am 5.4 2.6 3.4 87 0.9 SSW 7 9 4 5 1019.0 1018.0 0.0
26/01:30am 5.3 3.5 3.2 86 0.9 SSE 2 7 1 4 1019.2 1018.2 0.0
26/01:00am 5.7 2.9 3.0 83 1.1 SSW 7 9 4 5 1019.6 1018.6 0.0
26/12:30am 6.0 3.1 2.8 80 1.4 S 7 9 4 5 1019.9 1019.0 0.0
26/12:00am 6.6 4.0 3.0 78 1.5 SSW 6 7 3 4 1020.1 1019.2 0.0
 
Date/Time
EDT
Temp
°C
App
Temp
°C
Dew
Point
Rel
Hum
%
Delta-T
°C
Wind Press
QNH
hPa
Press
MSL
hPa
Rain
since 9 am
mm
Dir
 
Spd
km/h
Gust
km/h
Spd
kts
Gust
kts
25/11:30pm 7.6 5.0 3.3 74 1.9 S 6 7 3 4 1020.3 1019.3 0.0
25/11:00pm 9.7 7.0 3.9 67 2.6 SSE 7 9 4 5 1020.0 1019.1 0.0
25/10:30pm 9.7 8.3 3.4 65 2.8 CALM 0 0 0 0 1020.1 1019.2 0.0
25/10:00pm 10.5 9.0 3.1 60 3.3 CALM 0 0 0 0 1019.9 1019.0 0.0
25/09:30pm 11.6 9.0 3.1 56 3.8 S 6 7 3 4 1019.5 1018.5 0.0
25/09:00pm 12.6 9.9 2.5 50 4.5 SSW 6 9 3 5 1019.3 1018.3 0.0
25/08:30pm 14.1 11.3 2.0 44 5.4 WSW 6 11 3 6 1018.9 1017.9 0.0
25/08:00pm 17.3 13.4 1.3 34 7.2 WSW 11 13 6 7 1018.5 1017.5 0.0
25/07:30pm 19.9 15.3 1.4 29 8.6 SW 15 22 8 12 1018.1 1017.1 0.0
25/07:00pm 21.3 15.9 1.0 26 9.4 SW 19 26 10 14 1017.8 1016.8 0.0
25/06:30pm 22.0 16.5 0.5 24 9.9 SW 19 26 10 14 1017.6 1016.6 0.0
25/06:00pm 22.3 16.6 -0.4 22 10.3 SSW 19 26 10 14 1017.3 1016.3 0.0
25/05:30pm 23.3 17.9 -1.6 19 11.2 SW 17 24 9 13 1017.3 1016.3 0.0
25/05:00pm 23.4 17.5 -0.8 20 11.0 SW 20 28 11 15 1017.3 1016.3 0.0

Other Formats:

Comma delimited format used in spreadsheet applications
http://www.bom.gov.au/fwo/IDN60801/IDN60801.94712.axf

JavaScript Object Notation format (JSON) in row-major order
http://www.bom.gov.au/fwo/IDN60801/IDN60801.94712.json